Time;durP1;ratioP1;P1;durP2;ratioP2;P2;SDS_P1;SDS_P2;PMS_P1;PMS_P2;Temp;Humidity;BMP_temperature;BMP_pressure;BME280_temperature;BME280_humidity;BME280_pressure;Samples;Min_cycle;Max_cycle;Signal;HPM_P1;HPM_P2
2021/12/28 00:01:49;;;;;;;;;;;15.50;40.60;;;;;;5093565;28;19912;-61
2021/12/28 00:04:14;;;;;;;;;;;15.50;40.70;;;;;;5093852;28;19920;-61
2021/12/28 00:06:40;;;;;;;;;;;15.50;40.70;;;;;;5100528;28;20283;-61
2021/12/28 00:09:05;;;;;;;;;;;15.50;40.70;;;;;;5100220;28;20326;-61
2021/12/28 00:11:31;;;;;;;;;;;15.50;40.80;;;;;;5100437;28;20065;-61
2021/12/28 00:14:01;;;;;;;;;;;15.50;40.70;;;;;;5100372;28;19908;-61
2021/12/28 00:16:33;;;;;;;;;;;15.50;40.80;;;;;;5100155;28;19908;-61
2021/12/28 00:19:00;;;;;;;;;;;15.40;40.70;;;;;;5100206;28;20279;-61
2021/12/28 00:21:25;;;;;;;;;;;15.50;40.80;;;;;;5099984;28;20359;-61
2021/12/28 00:23:51;;;;;;;;;;;15.50;40.80;;;;;;5100047;28;20011;-61
2021/12/28 00:26:17;;;;;;;;;;;15.50;40.80;;;;;;5099976;28;19912;-61
2021/12/28 00:28:43;;;;;;;;;;;15.50;40.70;;;;;;5099964;28;19924;-61
2021/12/28 00:31:11;;;;;;;;;;;15.50;40.70;;;;;;5100131;28;19912;-61
2021/12/28 00:33:36;;;;;;;;;;;15.50;40.80;;;;;;5099914;28;19908;-61
2021/12/28 00:36:02;;;;;;;;;;;15.50;40.80;;;;;;5099879;28;19919;-61
2021/12/28 00:38:28;;;;;;;;;;;15.50;40.80;;;;;;5100204;28;20283;-61
2021/12/28 00:40:55;;;;;;;;;;;15.50;40.80;;;;;;5100187;28;19912;-61
2021/12/28 00:43:20;;;;;;;;;;;15.40;40.80;;;;;;5081578;28;19955;-61
2021/12/28 00:45:47;;;;;;;;;;;15.50;40.80;;;;;;5099690;28;19955;-61
2021/12/28 00:48:13;;;;;;;;;;;15.50;40.80;;;;;;5099578;28;19916;-61
2021/12/28 00:50:38;;;;;;;;;;;15.50;40.90;;;;;;5099483;28;19914;-61
2021/12/28 00:53:04;;;;;;;;;;;15.50;40.90;;;;;;5099466;28;19909;-61
2021/12/28 00:55:30;;;;;;;;;;;15.50;40.90;;;;;;5099438;28;19908;-61
2021/12/28 00:57:55;;;;;;;;;;;15.50;40.90;;;;;;5099176;28;20387;-61
2021/12/28 01:00:23;;;;;;;;;;;15.50;40.80;;;;;;5099493;28;19908;-61
2021/12/28 01:02:48;;;;;;;;;;;15.40;40.90;;;;;;5099282;28;19916;-61
2021/12/28 01:05:14;;;;;;;;;;;15.50;40.90;;;;;;5099285;28;19915;-61
2021/12/28 01:07:39;;;;;;;;;;;15.50;40.90;;;;;;5099584;28;19908;-61
2021/12/28 01:10:07;;;;;;;;;;;15.50;40.90;;;;;;5099757;28;19908;-61
2021/12/28 01:12:33;;;;;;;;;;;15.40;41.00;;;;;;5099940;28;19912;-61
2021/12/28 01:14:58;;;;;;;;;;;15.40;40.90;;;;;;5099335;28;20416;-61
2021/12/28 01:17:24;;;;;;;;;;;15.50;41.00;;;;;;5096132;28;19954;-61
2021/12/28 01:19:49;;;;;;;;;;;15.50;41.00;;;;;;5096067;28;19912;-61
2021/12/28 01:22:15;;;;;;;;;;;15.50;40.90;;;;;;5096148;28;19908;-60
2021/12/28 01:24:40;;;;;;;;;;;15.50;41.00;;;;;;5096176;28;20161;-61
2021/12/28 01:27:06;;;;;;;;;;;15.40;41.00;;;;;;5096066;28;19911;-61
2021/12/28 01:29:32;;;;;;;;;;;15.40;41.00;;;;;;5096026;28;20295;-60
2021/12/28 01:31:58;;;;;;;;;;;15.50;41.00;;;;;;5095956;28;19908;-60
2021/12/28 01:34:24;;;;;;;;;;;15.50;41.00;;;;;;5095844;28;19915;-61
2021/12/28 01:36:49;;;;;;;;;;;15.50;41.00;;;;;;5095991;28;19908;-61
2021/12/28 01:39:15;;;;;;;;;;;15.50;41.00;;;;;;5096018;28;19908;-62
2021/12/28 01:41:40;;;;;;;;;;;15.40;41.00;;;;;;5077679;28;19908;-61
2021/12/28 01:44:07;;;;;;;;;;;15.40;41.00;;;;;;5095817;28;20431;-62
2021/12/28 01:46:34;;;;;;;;;;;15.40;41.00;;;;;;5095612;28;19912;-61
2021/12/28 01:49:00;;;;;;;;;;;15.40;41.10;;;;;;5095519;28;19952;-61
2021/12/28 01:51:27;;;;;;;;;;;15.40;41.10;;;;;;5095699;28;20338;-61
2021/12/28 01:53:55;;;;;;;;;;;15.50;41.10;;;;;;5095410;28;20322;-61
2021/12/28 01:56:26;;;;;;;;;;;15.50;41.10;;;;;;5095455;28;20367;-61
2021/12/28 01:58:51;;;;;;;;;;;15.50;41.10;;;;;;5095361;28;19949;-62
2021/12/28 02:01:17;;;;;;;;;;;15.40;41.10;;;;;;5095416;28;19908;-61
2021/12/28 02:03:43;;;;;;;;;;;15.40;41.10;;;;;;5095134;28;19956;-61
2021/12/28 02:06:09;;;;;;;;;;;15.40;41.10;;;;;;5095221;28;19961;-61
2021/12/28 02:08:35;;;;;;;;;;;15.40;41.20;;;;;;5095334;28;20339;-61
2021/12/28 02:11:00;;;;;;;;;;;15.40;41.20;;;;;;5095148;28;19912;-61
2021/12/28 02:13:26;;;;;;;;;;;15.40;41.10;;;;;;5076919;28;20331;-61
2021/12/28 02:15:53;;;;;;;;;;;15.40;41.10;;;;;;5095318;28;20058;-61
2021/12/28 02:18:20;;;;;;;;;;;15.40;41.20;;;;;;5094949;28;19912;-61
2021/12/28 02:20:46;;;;;;;;;;;15.40;41.30;;;;;;5094960;28;19908;-61
2021/12/28 02:23:12;;;;;;;;;;;15.40;41.20;;;;;;5094887;28;19939;-61
2021/12/28 02:25:38;;;;;;;;;;;15.40;41.20;;;;;;5076597;28;19908;-61
2021/12/28 02:28:05;;;;;;;;;;;15.40;41.20;;;;;;5093964;28;19947;-62
2021/12/28 02:30:30;;;;;;;;;;;15.40;41.20;;;;;;5094607;28;19971;-63
2021/12/28 02:32:56;;;;;;;;;;;15.40;41.30;;;;;;5094599;28;19922;-61
2021/12/28 02:35:23;;;;;;;;;;;15.40;41.20;;;;;;5094919;28;19908;-62
2021/12/28 02:37:48;;;;;;;;;;;15.50;41.30;;;;;;5094580;28;19909;-61
2021/12/28 02:40:16;;;;;;;;;;;15.40;41.20;;;;;;5094626;28;20019;-61
2021/12/28 02:42:41;;;;;;;;;;;15.40;41.10;;;;;;5094449;28;19920;-62
2021/12/28 02:45:10;;;;;;;;;;;15.40;41.30;;;;;;5095120;28;19908;-61
2021/12/28 02:47:36;;;;;;;;;;;15.50;41.20;;;;;;5094426;28;19909;-61
2021/12/28 02:50:04;;;;;;;;;;;15.50;41.20;;;;;;5094395;28;19939;-61
2021/12/28 02:52:34;;;;;;;;;;;15.40;41.30;;;;;;5094260;28;19908;-61
2021/12/28 02:54:59;;;;;;;;;;;15.40;41.30;;;;;;5094383;28;20279;-61
2021/12/28 02:57:25;;;;;;;;;;;15.50;41.30;;;;;;5094233;28;19921;-61
2021/12/28 02:59:50;;;;;;;;;;;15.50;41.30;;;;;;5094126;28;20061;-60
2021/12/28 03:02:16;;;;;;;;;;;15.40;41.20;;;;;;5094116;28;19915;-60
2021/12/28 03:04:42;;;;;;;;;;;15.40;41.30;;;;;;5094097;28;19908;-61
2021/12/28 03:07:08;;;;;;;;;;;15.50;41.30;;;;;;5093988;28;20278;-61
2021/12/28 03:09:34;;;;;;;;;;;15.50;41.30;;;;;;5093992;28;19915;-61
2021/12/28 03:11:59;;;;;;;;;;;15.40;41.30;;;;;;5093945;28;20298;-61
2021/12/28 03:14:25;;;;;;;;;;;15.40;41.30;;;;;;5093914;28;19908;-61
2021/12/28 03:16:50;;;;;;;;;;;15.50;41.40;;;;;;5093880;28;19908;-61
2021/12/28 03:19:16;;;;;;;;;;;15.50;41.30;;;;;;5094026;28;19991;-61
2021/12/28 03:21:41;;;;;;;;;;;15.50;41.40;;;;;;5093824;28;20416;-61
2021/12/28 03:24:07;;;;;;;;;;;15.40;41.40;;;;;;5093733;28;19916;-61
2021/12/28 03:26:33;;;;;;;;;;;15.50;41.40;;;;;;5093789;28;19919;-61
2021/12/28 03:28:58;;;;;;;;;;;15.40;41.40;;;;;;5093565;28;19908;-60
2021/12/28 03:31:24;;;;;;;;;;;15.40;41.40;;;;;;5093651;28;19999;-60
2021/12/28 03:33:50;;;;;;;;;;;15.50;41.40;;;;;;5093601;28;20283;-60
2021/12/28 03:36:17;;;;;;;;;;;15.50;41.40;;;;;;5093483;28;20355;-60
2021/12/28 03:38:44;;;;;;;;;;;15.50;41.40;;;;;;5075477;28;19912;-60
2021/12/28 03:41:10;;;;;;;;;;;15.40;41.40;;;;;;5093165;28;19909;-60
2021/12/28 03:43:36;;;;;;;;;;;15.50;41.40;;;;;;5093642;28;19920;-61
2021/12/28 03:46:02;;;;;;;;;;;15.50;41.40;;;;;;5094034;28;19915;-60
2021/12/28 03:48:28;;;;;;;;;;;15.50;41.40;;;;;;5093677;28;20348;-60
2021/12/28 03:50:53;;;;;;;;;;;15.40;41.40;;;;;;5093665;28;19922;-60
2021/12/28 03:53:18;;;;;;;;;;;15.50;41.50;;;;;;5093611;28;19914;-61
2021/12/28 03:55:44;;;;;;;;;;;15.50;41.50;;;;;;5093664;28;19908;-60
2021/12/28 03:58:09;;;;;;;;;;;15.50;41.40;;;;;;5093370;28;20437;-60
2021/12/28 04:00:37;;;;;;;;;;;15.40;41.50;;;;;;5093885;28;19955;-62
2021/12/28 04:03:03;;;;;;;;;;;15.50;41.40;;;;;;5093526;28;19942;-60
2021/12/28 04:05:28;;;;;;;;;;;15.40;41.50;;;;;;5093695;28;20348;-60
2021/12/28 04:07:54;;;;;;;;;;;15.40;41.40;;;;;;5093637;28;19915;-60
2021/12/28 04:10:28;;;;;;;;;;;15.50;41.60;;;;;;5093768;28;19931;-60
2021/12/28 04:12:54;;;;;;;;;;;15.50;41.50;;;;;;5093471;28;19998;-61
2021/12/28 04:15:19;;;;;;;;;;;15.50;41.50;;;;;;5093639;28;20437;-61
2021/12/28 04:17:44;;;;;;;;;;;15.50;41.50;;;;;;5093365;28;19934;-61
2021/12/28 04:20:12;;;;;;;;;;;15.40;41.50;;;;;;5093615;28;19908;-61
2021/12/28 04:22:37;;;;;;;;;;;15.40;41.50;;;;;;5093287;28;20397;-61
2021/12/28 04:25:03;;;;;;;;;;;15.50;41.50;;;;;;5093402;28;19908;-61
2021/12/28 04:27:29;;;;;;;;;;;15.50;41.50;;;;;;5093258;28;19908;-61
2021/12/28 04:29:54;;;;;;;;;;;15.40;41.50;;;;;;5093318;28;19908;-61
2021/12/28 04:32:20;;;;;;;;;;;15.50;41.50;;;;;;5075079;28;19908;-61
2021/12/28 04:34:45;;;;;;;;;;;15.50;41.50;;;;;;5093309;28;19976;-61
2021/12/28 04:37:11;;;;;;;;;;;15.40;41.60;;;;;;5093571;28;19954;-61
2021/12/28 04:39:36;;;;;;;;;;;15.40;41.50;;;;;;5093447;28;20007;-61
2021/12/28 04:42:02;;;;;;;;;;;15.40;41.60;;;;;;5093234;28;19912;-61
2021/12/28 04:44:27;;;;;;;;;;;15.40;41.60;;;;;;5093301;28;20283;-61
2021/12/28 04:46:53;;;;;;;;;;;15.40;41.60;;;;;;5093285;28;19951;-61
2021/12/28 04:49:21;;;;;;;;;;;15.40;41.50;;;;;;5093307;28;19916;-61
2021/12/28 04:51:47;;;;;;;;;;;15.40;41.60;;;;;;5094172;28;19908;-60
2021/12/28 04:54:13;;;;;;;;;;;15.40;41.60;;;;;;5097234;28;20320;-60
2021/12/28 04:56:39;;;;;;;;;;;15.40;41.60;;;;;;5096694;28;20392;-60
2021/12/28 04:59:05;;;;;;;;;;;15.50;41.60;;;;;;5078705;28;19966;-60
2021/12/28 05:01:30;;;;;;;;;;;15.40;41.60;;;;;;5096933;28;19962;-60
2021/12/28 05:03:56;;;;;;;;;;;15.50;41.60;;;;;;5096905;28;20260;-60
2021/12/28 05:06:21;;;;;;;;;;;15.50;41.60;;;;;;5096711;28;19908;-60
2021/12/28 05:08:47;;;;;;;;;;;15.50;41.60;;;;;;5096576;28;19908;-60
2021/12/28 05:11:14;;;;;;;;;;;15.50;41.70;;;;;;5096580;28;20022;-60
2021/12/28 05:13:40;;;;;;;;;;;15.50;41.60;;;;;;5096748;28;19908;-60
2021/12/28 05:16:06;;;;;;;;;;;15.50;41.60;;;;;;5096461;28;19908;-60
2021/12/28 05:18:31;;;;;;;;;;;15.50;41.60;;;;;;5096536;28;19908;-60
2021/12/28 05:20:57;;;;;;;;;;;15.50;41.60;;;;;;5096430;28;19986;-60
2021/12/28 05:23:22;;;;;;;;;;;15.50;41.60;;;;;;5096491;28;19920;-60
2021/12/28 05:25:48;;;;;;;;;;;15.50;41.60;;;;;;5096561;28;19935;-60
2021/12/28 05:28:13;;;;;;;;;;;15.50;41.70;;;;;;5078093;28;19915;-60
2021/12/28 05:30:39;;;;;;;;;;;15.50;41.60;;;;;;5096272;28;20011;-60
2021/12/28 05:33:04;;;;;;;;;;;15.50;41.70;;;;;;5096088;28;19908;-60
2021/12/28 05:35:30;;;;;;;;;;;15.50;41.60;;;;;;5096141;28;19939;-60
2021/12/28 05:37:55;;;;;;;;;;;15.50;41.60;;;;;;5077977;28;19908;-60
2021/12/28 05:40:21;;;;;;;;;;;15.50;41.60;;;;;;5077798;28;20078;-60
2021/12/28 05:42:46;;;;;;;;;;;15.50;41.60;;;;;;5095958;28;19923;-60
2021/12/28 05:45:12;;;;;;;;;;;15.60;41.70;;;;;;5096184;28;19913;-60
2021/12/28 05:47:38;;;;;;;;;;;15.50;41.70;;;;;;5095803;28;20003;-60
2021/12/28 05:50:05;;;;;;;;;;;15.50;41.70;;;;;;5095838;28;19946;-60
2021/12/28 05:52:31;;;;;;;;;;;15.50;41.60;;;;;;5095830;28;19915;-60
2021/12/28 05:54:56;;;;;;;;;;;15.50;41.60;;;;;;5095577;28;19908;-60
2021/12/28 05:57:22;;;;;;;;;;;15.50;41.60;;;;;;5095528;28;19930;-60
2021/12/28 05:59:47;;;;;;;;;;;15.50;41.70;;;;;;5077530;28;19908;-60
2021/12/28 06:02:13;;;;;;;;;;;15.50;41.70;;;;;;5095422;28;20371;-60
2021/12/28 06:04:38;;;;;;;;;;;15.50;41.70;;;;;;5095503;28;19916;-60
2021/12/28 06:07:04;;;;;;;;;;;15.50;41.80;;;;;;5095496;28;19962;-60
2021/12/28 06:09:29;;;;;;;;;;;15.50;41.80;;;;;;5095431;28;19942;-60
2021/12/28 06:11:55;;;;;;;;;;;15.50;41.80;;;;;;5095656;28;20003;-60
2021/12/28 06:14:20;;;;;;;;;;;15.50;41.80;;;;;;5095347;28;19953;-60
2021/12/28 06:16:46;;;;;;;;;;;15.50;41.80;;;;;;5095648;28;19908;-60
2021/12/28 06:19:11;;;;;;;;;;;15.50;41.80;;;;;;5095270;28;20248;-60
2021/12/28 06:21:37;;;;;;;;;;;15.50;41.80;;;;;;5095298;28;19908;-60
2021/12/28 06:24:04;;;;;;;;;;;15.50;41.80;;;;;;5094998;28;19920;-60
2021/12/28 06:26:30;;;;;;;;;;;15.50;41.90;;;;;;5095340;28;19911;-60
2021/12/28 06:28:56;;;;;;;;;;;15.50;41.80;;;;;;5095003;28;20342;-60
2021/12/28 06:31:21;;;;;;;;;;;15.50;41.80;;;;;;5094998;28;20002;-60
2021/12/28 06:33:47;;;;;;;;;;;15.50;41.90;;;;;;5094989;28;19908;-60
2021/12/28 06:36:13;;;;;;;;;;;15.50;41.90;;;;;;5094875;28;20356;-60
2021/12/28 06:38:38;;;;;;;;;;;15.50;41.90;;;;;;5094799;28;19908;-60
2021/12/28 06:41:06;;;;;;;;;;;15.50;41.90;;;;;;5094824;28;19908;-60
2021/12/28 06:43:32;;;;;;;;;;;15.50;41.90;;;;;;5094667;28;20429;-60
2021/12/28 06:45:57;;;;;;;;;;;15.50;41.90;;;;;;5094735;28;20022;-60
2021/12/28 06:48:23;;;;;;;;;;;15.50;41.90;;;;;;5094756;28;20375;-60
2021/12/28 06:50:49;;;;;;;;;;;15.50;41.90;;;;;;5094923;28;20340;-60
2021/12/28 06:53:14;;;;;;;;;;;15.50;41.90;;;;;;5094512;28;19908;-60
2021/12/28 06:55:40;;;;;;;;;;;15.50;41.90;;;;;;5094523;28;19908;-60
2021/12/28 06:58:05;;;;;;;;;;;15.50;41.90;;;;;;5094345;28;19921;-60
2021/12/28 07:00:31;;;;;;;;;;;15.50;41.90;;;;;;5094530;28;19915;-60
2021/12/28 07:02:57;;;;;;;;;;;15.50;41.90;;;;;;5094563;28;19985;-60
2021/12/28 07:05:22;;;;;;;;;;;15.50;42.00;;;;;;5094402;28;19912;-60
2021/12/28 07:07:48;;;;;;;;;;;15.50;41.90;;;;;;5094284;28;20274;-61
2021/12/28 07:10:13;;;;;;;;;;;15.50;42.00;;;;;;5094257;28;20339;-60
2021/12/28 07:12:39;;;;;;;;;;;15.50;41.90;;;;;;5094216;28;20279;-60
2021/12/28 07:15:05;;;;;;;;;;;15.50;42.00;;;;;;5093739;28;19955;-61
2021/12/28 07:17:31;;;;;;;;;;;15.50;42.00;;;;;;5094165;28;20264;-60
2021/12/28 07:20:02;;;;;;;;;;;15.50;42.00;;;;;;5094272;28;19934;-60
2021/12/28 07:22:28;;;;;;;;;;;15.50;42.00;;;;;;5093790;28;19961;-60
2021/12/28 07:24:53;;;;;;;;;;;15.50;42.00;;;;;;5094232;28;19908;-60
2021/12/28 07:27:19;;;;;;;;;;;15.50;42.10;;;;;;5094138;28;19999;-60
2021/12/28 07:29:44;;;;;;;;;;;15.50;42.10;;;;;;5093895;28;19908;-60
2021/12/28 07:32:10;;;;;;;;;;;15.50;42.10;;;;;;5093966;28;20330;-59
2021/12/28 07:34:35;;;;;;;;;;;15.50;42.00;;;;;;5093847;28;19908;-60
2021/12/28 07:37:01;;;;;;;;;;;15.50;42.10;;;;;;5093735;28;19908;-60
2021/12/28 07:39:27;;;;;;;;;;;15.50;42.10;;;;;;5094008;28;19915;-60
2021/12/28 07:41:52;;;;;;;;;;;15.50;42.10;;;;;;5093769;28;19919;-60
2021/12/28 07:44:18;;;;;;;;;;;15.50;42.10;;;;;;5093672;28;20370;-60
2021/12/28 07:46:43;;;;;;;;;;;15.50;42.10;;;;;;5093756;28;20389;-60
2021/12/28 07:49:09;;;;;;;;;;;15.50;42.10;;;;;;5093715;28;20314;-60
2021/12/28 07:51:34;;;;;;;;;;;15.50;42.10;;;;;;5093525;28;19908;-60
2021/12/28 07:54:00;;;;;;;;;;;15.50;42.10;;;;;;5093323;28;19908;-60
2021/12/28 07:56:25;;;;;;;;;;;15.50;42.10;;;;;;5093330;28;19913;-60
2021/12/28 07:58:51;;;;;;;;;;;15.50;42.20;;;;;;5093488;28;19957;-60
2021/12/28 08:01:16;;;;;;;;;;;15.50;42.10;;;;;;5093709;28;20352;-60
2021/12/28 08:03:42;;;;;;;;;;;15.50;42.10;;;;;;5093587;28;19926;-60
2021/12/28 08:06:07;;;;;;;;;;;15.50;42.10;;;;;;5093612;28;19908;-60
2021/12/28 08:08:33;;;;;;;;;;;15.50;42.10;;;;;;5093423;28;20248;-60
2021/12/28 08:10:58;;;;;;;;;;;15.50;42.20;;;;;;5093445;28;19915;-61
2021/12/28 08:13:24;;;;;;;;;;;15.50;42.20;;;;;;5093266;28;19908;-60
2021/12/28 08:15:49;;;;;;;;;;;15.50;42.20;;;;;;5093412;28;19973;-61
2021/12/28 08:18:15;;;;;;;;;;;15.50;42.20;;;;;;5093255;28;19915;-60
2021/12/28 08:20:40;;;;;;;;;;;15.50;42.20;;;;;;5075178;28;19908;-60
2021/12/28 08:23:06;;;;;;;;;;;15.50;42.20;;;;;;5075347;28;19942;-60
2021/12/28 08:25:32;;;;;;;;;;;15.50;42.20;;;;;;5093756;28;20367;-60
2021/12/28 08:27:58;;;;;;;;;;;15.50;42.20;;;;;;5097350;28;19916;-60
2021/12/28 08:30:23;;;;;;;;;;;15.50;42.10;;;;;;5097350;28;20360;-60
2021/12/28 08:32:49;;;;;;;;;;;15.50;42.20;;;;;;5097317;28;19908;-60
2021/12/28 08:35:15;;;;;;;;;;;15.50;42.20;;;;;;5097178;28;20286;-60
2021/12/28 08:37:41;;;;;;;;;;;15.50;42.30;;;;;;5097189;28;19942;-60
2021/12/28 08:40:08;;;;;;;;;;;15.50;42.20;;;;;;5097143;28;19953;-60
2021/12/28 08:42:33;;;;;;;;;;;15.50;42.20;;;;;;5097061;28;19912;-60
2021/12/28 08:44:59;;;;;;;;;;;15.50;42.20;;;;;;5097214;28;19915;-60
2021/12/28 08:47:27;;;;;;;;;;;15.50;42.20;;;;;;5096958;28;19915;-60
2021/12/28 08:49:56;;;;;;;;;;;15.50;42.30;;;;;;5097225;28;19962;-60
2021/12/28 08:52:22;;;;;;;;;;;15.50;42.20;;;;;;5096899;28;19908;-60
2021/12/28 08:54:47;;;;;;;;;;;15.50;42.20;;;;;;5096698;28;19915;-60
2021/12/28 08:57:13;;;;;;;;;;;15.50;42.30;;;;;;5096587;28;19963;-60
2021/12/28 08:59:38;;;;;;;;;;;15.50;42.30;;;;;;5078120;28;20312;-60
2021/12/28 09:02:05;;;;;;;;;;;15.50;42.30;;;;;;5096641;28;19908;-60
2021/12/28 09:04:30;;;;;;;;;;;15.50;42.30;;;;;;5078376;28;19930;-60
2021/12/28 09:06:56;;;;;;;;;;;15.50;42.30;;;;;;5096511;28;19908;-60
2021/12/28 09:09:22;;;;;;;;;;;15.50;42.30;;;;;;5078328;28;20337;-60
2021/12/28 09:11:47;;;;;;;;;;;15.50;42.40;;;;;;5096670;28;19909;-60
2021/12/28 09:14:13;;;;;;;;;;;15.60;42.40;;;;;;5096470;28;20371;-60
2021/12/28 09:16:38;;;;;;;;;;;15.50;42.40;;;;;;5096389;28;19915;-60
2021/12/28 09:19:04;;;;;;;;;;;15.50;42.40;;;;;;5095987;28;19908;-60
2021/12/28 09:21:29;;;;;;;;;;;15.50;42.40;;;;;;5096150;28;19955;-60
2021/12/28 09:23:55;;;;;;;;;;;15.60;42.40;;;;;;5096336;28;19923;-60
2021/12/28 09:26:20;;;;;;;;;;;15.50;42.40;;;;;;5096095;28;19921;-60
2021/12/28 09:28:46;;;;;;;;;;;15.50;42.40;;;;;;5096045;28;19908;-60
2021/12/28 09:31:11;;;;;;;;;;;15.50;42.40;;;;;;5096055;28;19908;-59
2021/12/28 09:33:37;;;;;;;;;;;15.60;42.40;;;;;;5096265;28;19966;-59
2021/12/28 09:36:05;;;;;;;;;;;15.60;42.40;;;;;;5095950;28;19954;-59
2021/12/28 09:38:30;;;;;;;;;;;15.60;42.40;;;;;;5095235;28;19914;-60
2021/12/28 09:40:56;;;;;;;;;;;15.50;42.40;;;;;;5095836;28;19909;-60
2021/12/28 09:43:21;;;;;;;;;;;15.60;42.40;;;;;;5095797;28;19923;-60
2021/12/28 09:45:47;;;;;;;;;;;15.60;42.40;;;;;;5096103;28;19915;-60
2021/12/28 09:48:12;;;;;;;;;;;15.60;42.50;;;;;;5095791;28;20451;-60
2021/12/28 09:50:39;;;;;;;;;;;15.60;42.50;;;;;;5095731;28;20368;-60
2021/12/28 09:53:06;;;;;;;;;;;15.60;42.40;;;;;;5095995;28;19942;-60
2021/12/28 09:55:32;;;;;;;;;;;15.60;42.40;;;;;;5095407;28;19908;-60
2021/12/28 09:57:58;;;;;;;;;;;15.60;42.50;;;;;;5095452;28;19927;-60
2021/12/28 10:00:23;;;;;;;;;;;15.60;42.50;;;;;;5095727;28;19923;-62
2021/12/28 10:02:49;;;;;;;;;;;15.60;42.50;;;;;;5095519;28;19967;-60
2021/12/28 10:05:17;;;;;;;;;;;15.60;42.50;;;;;;5095673;28;19912;-60
2021/12/28 10:07:44;;;;;;;;;;;15.60;42.50;;;;;;5095380;28;19931;-60
2021/12/28 10:10:09;;;;;;;;;;;15.60;42.50;;;;;;5095334;28;19915;-60
2021/12/28 10:12:37;;;;;;;;;;;15.60;42.50;;;;;;5095235;28;19909;-60
2021/12/28 10:15:05;;;;;;;;;;;15.60;42.60;;;;;;5076908;28;19908;-60
2021/12/28 10:17:32;;;;;;;;;;;15.60;42.60;;;;;;5095090;28;19908;-60
2021/12/28 10:19:58;;;;;;;;;;;15.50;42.60;;;;;;5094782;28;19908;-60
2021/12/28 10:22:34;;;;;;;;;;;15.60;42.50;;;;;;5094916;28;19912;-60
2021/12/28 10:25:09;;;;;;;;;;;15.60;42.60;;;;;;5095019;28;19952;-60
2021/12/28 10:27:36;;;;;;;;;;;15.60;42.60;;;;;;5094976;28;19908;-60
2021/12/28 10:30:22;;;;;;;;;;;15.50;42.60;;;;;;5095048;28;19915;-60
2021/12/28 10:32:49;;;;;;;;;;;15.60;42.60;;;;;;5094706;28;19915;-60
2021/12/28 10:35:16;;;;;;;;;;;15.60;42.60;;;;;;5094634;28;19995;-60
2021/12/28 10:37:44;;;;;;;;;;;15.60;42.60;;;;;;5094807;28;20317;-60
2021/12/28 10:40:11;;;;;;;;;;;15.60;42.70;;;;;;5094945;28;20374;-60
2021/12/28 10:42:47;;;;;;;;;;;15.60;42.70;;;;;;5094952;28;20370;-60
2021/12/28 10:45:15;;;;;;;;;;;15.60;42.70;;;;;;5094581;28;20004;-60
2021/12/28 10:47:41;;;;;;;;;;;15.60;42.70;;;;;;5094525;28;19934;-60
2021/12/28 10:50:37;;;;;;;;;;;15.60;42.70;;;;;;5093548;28;19908;-60
2021/12/28 10:53:25;;;;;;;;;;;15.60;42.70;;;;;;5081347;28;20004;-60
2021/12/28 10:55:53;;;;;;;;;;;15.60;42.70;;;;;;5094822;28;19908;-60
2021/12/28 10:58:23;;;;;;;;;;;15.60;42.80;;;;;;5094361;28;19980;-60
2021/12/28 11:00:49;;;;;;;;;;;15.60;42.70;;;;;;5094303;28;19929;-60
2021/12/28 11:03:20;;;;;;;;;;;15.60;42.70;;;;;;5094173;28;19923;-60
2021/12/28 11:05:49;;;;;;;;;;;15.60;42.70;;;;;;5094163;28;19908;-60
2021/12/28 11:08:15;;;;;;;;;;;15.60;42.70;;;;;;5094184;28;19908;-60
2021/12/28 11:10:43;;;;;;;;;;;15.60;42.70;;;;;;5094131;28;20374;-60
2021/12/28 11:13:08;;;;;;;;;;;15.60;42.80;;;;;;5094154;28;19908;-60
2021/12/28 11:15:37;;;;;;;;;;;15.60;42.80;;;;;;5075711;28;19953;-60
2021/12/28 11:18:22;;;;;;;;;;;15.60;42.80;;;;;;5093961;28;19927;-60
2021/12/28 11:20:48;;;;;;;;;;;15.60;42.80;;;;;;5093957;28;19912;-60
2021/12/28 11:23:14;;;;;;;;;;;15.60;42.90;;;;;;5093866;28;20023;-60
2021/12/28 11:25:40;;;;;;;;;;;15.60;42.80;;;;;;5093996;28;19954;-60
2021/12/28 11:28:14;;;;;;;;;;;15.60;42.90;;;;;;5093789;28;19908;-60
2021/12/28 11:30:40;;;;;;;;;;;15.60;42.90;;;;;;5094052;28;19915;-60
2021/12/28 11:33:08;;;;;;;;;;;15.60;42.90;;;;;;5093891;28;19909;-60
2021/12/28 11:35:34;;;;;;;;;;;15.60;42.90;;;;;;5093822;28;19909;-60
2021/12/28 11:38:01;;;;;;;;;;;15.60;42.90;;;;;;5093621;28;20409;-60
2021/12/28 11:40:26;;;;;;;;;;;15.60;43.00;;;;;;5093680;28;19953;-60
2021/12/28 11:42:52;;;;;;;;;;;15.60;43.00;;;;;;5093442;28;19920;-60
2021/12/28 11:45:20;;;;;;;;;;;15.60;43.00;;;;;;5093594;28;20287;-60
2021/12/28 11:47:45;;;;;;;;;;;15.60;43.00;;;;;;5093792;28;20378;-60
2021/12/28 11:50:11;;;;;;;;;;;15.60;42.90;;;;;;5093491;28;19954;-60
2021/12/28 11:52:37;;;;;;;;;;;15.60;43.00;;;;;;5093346;28;19931;-61
2021/12/28 11:55:03;;;;;;;;;;;15.60;43.00;;;;;;5093373;28;19953;-61
2021/12/28 11:57:30;;;;;;;;;;;15.60;43.00;;;;;;5093154;28;19920;-60
2021/12/28 11:59:57;;;;;;;;;;;15.60;43.00;;;;;;5093361;28;19951;-61
2021/12/28 12:02:45;;;;;;;;;;;15.60;43.00;;;;;;5093324;28;20071;-60
2021/12/28 12:05:12;;;;;;;;;;;15.60;43.10;;;;;;5093298;28;19916;-61
2021/12/28 12:07:39;;;;;;;;;;;15.60;43.10;;;;;;5093330;28;19912;-60
2021/12/28 12:10:06;;;;;;;;;;;15.60;43.00;;;;;;5093275;28;19915;-60
2021/12/28 12:12:53;;;;;;;;;;;15.60;43.10;;;;;;5093038;28;19945;-61
2021/12/28 12:15:20;;;;;;;;;;;15.60;43.10;;;;;;5092976;28;19908;-61
2021/12/28 12:17:47;;;;;;;;;;;15.60;43.10;;;;;;5093258;28;19908;-61
2021/12/28 12:20:15;;;;;;;;;;;15.60;43.10;;;;;;5092865;28;19994;-60
2021/12/28 12:22:43;;;;;;;;;;;15.60;43.20;;;;;;5092636;28;20355;-60
2021/12/28 12:25:08;;;;;;;;;;;15.60;43.20;;;;;;5093015;28;19920;-61
2021/12/28 12:27:41;;;;;;;;;;;15.60;43.10;;;;;;5092925;28;20413;-61
2021/12/28 12:30:27;;;;;;;;;;;15.60;43.10;;;;;;5093075;28;19915;-60
2021/12/28 12:33:02;;;;;;;;;;;15.60;43.20;;;;;;5092381;28;20007;-60
2021/12/28 12:35:46;;;;;;;;;;;15.60;43.20;;;;;;5092948;28;19908;-61
2021/12/28 12:38:12;;;;;;;;;;;15.60;43.10;;;;;;5092834;28;19953;-61
2021/12/28 12:40:59;;;;;;;;;;;15.60;43.20;;;;;;5092969;28;19912;-60
2021/12/28 12:43:26;;;;;;;;;;;15.60;43.20;;;;;;5093422;28;19916;-61
2021/12/28 12:45:52;;;;;;;;;;;15.60;43.20;;;;;;5058254;28;19908;-61
2021/12/28 12:48:36;;;;;;;;;;;15.60;43.20;;;;;;5093063;28;20394;-60
2021/12/28 12:51:19;;;;;;;;;;;15.60;43.30;;;;;;5092984;28;19961;-61
2021/12/28 12:53:47;;;;;;;;;;;15.60;43.20;;;;;;5092618;28;20006;-60
2021/12/28 12:56:14;;;;;;;;;;;15.60;43.20;;;;;;5092856;28;19912;-61
2021/12/28 12:58:40;;;;;;;;;;;15.60;43.30;;;;;;5092632;28;19967;-61
2021/12/28 13:01:06;;;;;;;;;;;15.60;43.20;;;;;;5092812;28;19908;-60
2021/12/28 13:03:33;;;;;;;;;;;15.60;43.30;;;;;;5092995;28;19916;-61
2021/12/28 13:06:00;;;;;;;;;;;15.60;43.30;;;;;;5092740;28;19995;-60
2021/12/28 13:08:25;;;;;;;;;;;15.60;43.30;;;;;;5074845;28;20382;-61
2021/12/28 13:10:51;;;;;;;;;;;15.60;43.40;;;;;;5092710;28;19908;-60
2021/12/28 13:13:16;;;;;;;;;;;15.60;43.30;;;;;;5094446;28;19947;-60
2021/12/28 13:15:42;;;;;;;;;;;15.60;43.40;;;;;;5096511;28;20355;-60
2021/12/28 13:18:07;;;;;;;;;;;15.60;43.40;;;;;;5096459;28;19912;-60
2021/12/28 13:20:33;;;;;;;;;;;15.60;43.50;;;;;;5096321;28;20440;-60
2021/12/28 13:23:01;;;;;;;;;;;15.60;43.50;;;;;;5096270;28;20389;-60
2021/12/28 13:25:28;;;;;;;;;;;15.60;43.50;;;;;;5096396;28;19909;-59
2021/12/28 13:27:54;;;;;;;;;;;15.60;43.60;;;;;;5095990;28;19957;-60
2021/12/28 13:30:23;;;;;;;;;;;15.60;43.40;;;;;;5096006;28;19908;-60
2021/12/28 13:32:50;;;;;;;;;;;15.60;43.50;;;;;;5077791;28;19908;-60
2021/12/28 13:35:32;;;;;;;;;;;15.60;43.50;;;;;;5096374;28;19908;-60
2021/12/28 13:38:01;;;;;;;;;;;15.60;43.50;;;;;;5095964;28;19912;-59
2021/12/28 13:40:29;;;;;;;;;;;15.60;43.60;;;;;;5095853;28;19915;-60
2021/12/28 13:42:54;;;;;;;;;;;15.60;43.60;;;;;;5095673;28;20413;-61
2021/12/28 13:45:28;;;;;;;;;;;15.60;43.50;;;;;;5096129;28;19908;-60
2021/12/28 13:47:53;;;;;;;;;;;15.60;43.60;;;;;;5096016;28;20289;-61
2021/12/28 13:50:19;;;;;;;;;;;15.60;43.60;;;;;;5095798;28;19915;-60
2021/12/28 13:52:46;;;;;;;;;;;15.60;43.60;;;;;;5095745;28;19912;-60
2021/12/28 13:55:12;;;;;;;;;;;15.60;43.60;;;;;;5095608;28;19908;-61
2021/12/28 13:57:38;;;;;;;;;;;15.60;43.60;;;;;;5095329;28;19920;-61
2021/12/28 14:00:05;;;;;;;;;;;15.60;43.60;;;;;;5095541;28;19919;-61
2021/12/28 14:02:31;;;;;;;;;;;15.60;43.60;;;;;;5095256;28;19912;-61
2021/12/28 14:04:57;;;;;;;;;;;15.60;43.60;;;;;;5095822;28;19916;-60
2021/12/28 14:07:22;;;;;;;;;;;15.60;43.70;;;;;;5095688;28;19908;-60
2021/12/28 14:09:49;;;;;;;;;;;15.70;43.60;;;;;;5095338;28;20057;-61
2021/12/28 14:12:15;;;;;;;;;;;15.60;43.60;;;;;;5077082;28;19908;-61
2021/12/28 14:14:45;;;;;;;;;;;15.60;43.70;;;;;;5095288;28;19908;-61